KOAJ

Albert J Ellis Airport

Jacksonville, North Carolina, USA
METAR KOAJ 170056Z 24005KT 10SM OVC049 12/08 A2995 RMK AO2 SLP148 T01220083
Observed Flight Rules
Dec-17 @ 00:56 UTC (12 minutes ago) Visual Flight Rules
Wind Visibility Clouds
240° at 5 knots 10 miles
  • Overcast at 4,900' AGL
Temperatures Readings
Current 12°C / 54°F
Dewpoint 8°C / 46°F
Humidity 77%
Altimeter 29.95" Hg
Pressure 1014.8 hPa
Elevation 29
METAR KOAJ 170056Z 24005KT 10SM OVC049 12/08 A2995 RMK AO2 SLP148 T01220083
Observed Flight Rules
Dec-17 @ 00:56 UTC
(12 minutes ago)
VFR
Wind Visibility
240° at 5 knots 10 miles
Clouds
  • Overcast at 4,900' AGL
Temperature Dewpoint
12°C / 54°F 8°C / 46°F
Humidity Altimeter Pressure
77% 29.95" Hg 1014.8 hPa